• Join FlightAware (Why Join?)
  • Login
  • US Flag 
02:24PM EDT


 

Airport Tracker/Info


-or-


 

Live Flight TrackerFlight Track Log ✈ JST963 ✈ 08-May-2013 ✈ YBCS / CNS - YPAD / ADL

Flight Track Log - Related Links

Times and Time Zones

All times are in EDT time to prevent confusion due to time zone crossing. See the JST963 flight status page for this flight to view local times or setup timezone preferences in your user account.

Time Position Orientation Groundspeed Altitude Reporting Facility
EDT Latitude Longitude Course Direction KTS MPH feet Rate Location/Type
04:33PM -16.9010 145.7697 292° West 153 176 2,200  Level Aus ATC (RADAR)
04:33PM -16.9000 145.7670 55° Northeast 135 155 1,900 1,560 Descending FlightAware
04:34PM -16.8950 145.7785 55° Northeast 151 174 2,600 2,160 Climbing Aus ATC (RADAR)
04:34PM -16.8900 145.7800 51° Northeast 154 177 2,800 1,440 Climbing FlightAware
04:34PM -16.8690 145.7910 27° Northeast 171 197 3,600 1,500 Climbing FlightAware
04:35PM -16.8572 145.8113 27° Northeast 177 204 4,200 1,200 Climbing Aus ATC (RADAR)
04:35PM -16.8580 145.8090 27° Northeast 192 221 4,100 900 Descending FlightAware
04:35PM -16.8610 145.8350 97° East 232 267 4,600 1,560 Climbing FlightAware
04:35PM -16.8770 145.8520 135° Southeast 253 291 5,300 2,400 Climbing FlightAware
04:36PM -16.8890 145.8540 171° South 273 314 5,800 2,700 Climbing FlightAware
04:36PM -16.9280 145.8420 196° South 297 342 7,100 3,000 Climbing FlightAware
04:37PM -16.9590 145.8280 203° Southwest 288 331 8,600 3,180 Climbing FlightAware
04:37PM -17.0211 145.8007 203° Southwest 296 341 10,800 2,760 Climbing Aus ATC (RADAR)
04:37PM -17.0170 145.8030 203° Southwest 311 358 10,700 1,140 Descending FlightAware
04:38PM -17.0760 145.7790 201° Southwest 345 397 11,600 1,920 Climbing FlightAware
04:38PM -17.1185 145.7613 201° Southwest 347 399 12,800 2,520 Climbing Aus ATC (RADAR)
04:39PM -17.1390 145.7530 201° Southwest 362 417 13,300 1,920 Climbing FlightAware
04:39PM -17.2080 145.7250 201° Southwest 379 436 14,800 2,400 Climbing FlightAware
04:40PM -17.2850 145.6940 201° Southwest 367 422 16,900 2,760 Climbing FlightAware
04:40PM -17.3199 145.6796 201° Southwest 369 425 17,800 2,040 Climbing Aus ATC (RADAR)
04:41PM -17.3410 145.6710 201° Southwest 381 438 18,100 1,980 Climbing FlightAware
04:41PM -17.4010 145.6470 201° Southwest 19,300 2,160 Climbing FlightAware
04:42PM -17.4850 145.6130 201° Southwest 380 437 21,200 2,100 Climbing FlightAware
04:43PM -17.5344 145.5924 201° Southwest 378 435 21,900 1,320 Climbing Aus ATC (RADAR)
04:43PM -17.5500 145.5860 201° Southwest 391 450 22,100 1,440 Climbing FlightAware
04:44PM -17.6310 145.5530 201° Southwest 385 443 23,400 1,500 Climbing FlightAware
04:44PM -17.6940 145.5270 201° Southwest 399 459 24,300 1,560 Climbing FlightAware
04:45PM -17.7740 145.4940 201° Southwest 403 464 25,500 1,440 Climbing FlightAware
04:46PM -17.8310 145.4710 201° Southwest 404 465 26,400 1,260 Climbing FlightAware
04:46PM -17.9327 145.4289 201° Southwest 411 473 27,400 1,200 Climbing Aus ATC (RADAR)
04:47PM -17.9770 145.4110 201° Southwest 423 487 27,900 1,020 Climbing FlightAware
04:48PM -18.0490 145.3820 201° Southwest 429 494 28,600 1,080 Climbing FlightAware
04:48PM -18.1210 145.3520 202° Southwest 436 502 29,400 1,080 Climbing FlightAware
04:49PM -18.1950 145.3220 201° Southwest 441 507 30,100 1,200 Climbing FlightAware
04:50PM -18.2860 145.2840 202° Southwest 441 507 31,100 1,680 Climbing FlightAware
04:50PM -18.3449 145.2595 202° Southwest 433 498 32,200 1,860 Climbing Aus ATC (RADAR)
04:50PM -18.3720 145.2490 202° Southwest 430 495 32,500 1,260 Climbing FlightAware
04:51PM -18.4450 145.2180 202° Southwest 428 493 33,400 1,620 Climbing FlightAware
04:52PM -18.5103 145.1908 202° Southwest 418 481 34,500 1,500 Climbing Aus ATC (RADAR)
04:52PM -18.5190 145.1880 202° Southwest 419 482 34,400 780 Descending FlightAware
04:52PM -18.5990 145.1550 201° Southwest 418 481 35,200 1,020 Climbing FlightAware
04:53PM -18.6700 145.1250 202° Southwest 415 478 35,900 720 Climbing FlightAware
04:54PM -18.7434 145.0940 202° Southwest 410 472 36,200 120 Climbing Aus ATC (RADAR)
04:54PM -18.7440 145.0940 202° Southwest 411 473 36,000 -300 Descending FlightAware
04:55PM -18.8230 145.0620 201° Southwest 417 480 36,000 60 Level FlightAware
04:55PM -18.8598 145.0458 201° Southwest 415 478 36,100  Climbing Aus ATC (RADAR)
04:55PM -18.8940 145.0320 201° Southwest 417 480 36,000  Descending FlightAware
04:56PM -18.9763 144.9971 201° Southwest 414 476 36,100  Climbing Aus ATC (RADAR)
04:56PM -18.9770 144.9980 201° Southwest 417 480 36,000 -180 Descending FlightAware
04:57PM -19.0480 144.9680 202° Southwest 417 480 36,000 60 Level FlightAware
04:57PM -19.0930 144.9487 202° Southwest 414 476 36,100  Climbing Aus ATC (RADAR)
04:57PM -19.1200 144.9380 202° Southwest 416 479 36,000 -120 Descending FlightAware
04:58PM -19.1970 144.9060 201° Southwest 416 479 36,000  Level FlightAware
04:59PM -19.2710 144.8750 202° Southwest 415 478 36,000 60 Level FlightAware
04:59PM -19.3260 144.8516 202° Southwest 411 473 36,100  Climbing Aus ATC (RADAR)
04:59PM -19.3550 144.8400 202° Southwest 414 476 36,000 -120 Descending FlightAware
05:00PM -19.4180 144.8130 202° Southwest 412 474 36,000 60 Level FlightAware
05:01PM -19.4949 144.7811 202° Southwest 409 471 36,100  Climbing Aus ATC (RADAR)
05:01PM -19.4970 144.7800 202° Southwest 411 473 36,000 -180 Descending FlightAware
05:02PM -19.5780 144.7460 202° Southwest 412 474 36,000 60 Level FlightAware
05:02PM -19.6361 144.7216 202° Southwest 408 470 36,100  Climbing Aus ATC (RADAR)
05:02PM -19.6500 144.7160 202° Southwest 412 474 36,000 -180 Descending FlightAware
05:03PM -19.7180 144.6880 202° Southwest 411 473 36,000 120 Level FlightAware
05:03PM -19.7248 144.6843 202° Southwest 409 471 36,100 120 Climbing Aus ATC (RADAR)
05:03PM -19.7867 144.6581 202° Southwest 410 472 36,100 -180 Level Aus ATC (RADAR)
05:04PM -19.7970 144.6540 202° Southwest 409 471 36,000  Descending FlightAware
05:04PM -19.8574 144.6287 202° Southwest 410 472 36,100  Climbing Aus ATC (RADAR)
05:04PM -19.8670 144.6250 202° Southwest 410 472 36,000  Descending FlightAware
05:05PM -19.9012 144.6103 202° Southwest 404 465 36,100  Climbing Aus ATC (RADAR)
05:05PM -19.9500 144.5900 202° Southwest 408 470 36,000 -120 Descending FlightAware
05:06PM -20.0190 144.5610 202° Southwest 409 471 36,000 60 Level FlightAware
05:06PM -20.0768 144.5359 202° Southwest 405 466 36,100  Climbing Aus ATC (RADAR)
05:06PM -20.0920 144.5300 202° Southwest 408 470 36,000  Descending FlightAware
05:07PM -20.1218 144.5178 202° Southwest 408 470 36,100  Climbing Aus ATC (RADAR)
05:07PM -20.1680 144.4980 202° Southwest 410 472 36,000 -120 Descending FlightAware
05:08PM -20.2390 144.4680 202° Southwest 410 472 36,000 60 Level FlightAware
05:08PM -20.3067 144.4393 202° Southwest 406 467 36,100  Climbing Aus ATC (RADAR)
05:09PM -20.3160 144.4350 202° Southwest 407 468 36,000  Descending FlightAware
05:09PM -20.3679 144.4132 202° Southwest 402 463 36,100  Climbing Aus ATC (RADAR)
05:09PM -20.4080 144.3970 202° Southwest 406 467 36,000 -120 Descending FlightAware
05:10PM -20.4680 144.3720 201° Southwest 406 467 36,000  Level FlightAware
05:11PM -20.5280 144.3480 201° Southwest 406 467 36,000  Level FlightAware
05:11PM -20.5870 144.3230 201° Southwest 406 467 36,000 120 Level FlightAware
05:11PM -20.6271 144.3029 201° Southwest 395 455 36,100 240 Climbing Aus ATC (RADAR)
05:12PM -20.6612 144.2880 201° Southwest 397 457 36,100 -180 Level Aus ATC (RADAR)
05:12PM -20.6470 144.2990 201° Southwest 406 467 36,000  Descending FlightAware
05:12PM -20.7212 144.2632 201° Southwest 393 452 36,100  Climbing Aus ATC (RADAR)
05:13PM -20.7210 144.2680 201° Southwest 406 467 36,000 -120 Descending FlightAware
05:14PM -20.7810 144.2440 201° Southwest 406 467 36,000 60 Level FlightAware
05:14PM -20.9169 144.2005 201° Southwest 404 465 36,100  Climbing Aus ATC (RADAR)
05:14PM -20.8410 144.2190 201° Southwest 406 467 36,000  Descending FlightAware
05:15PM -20.9836 144.1873 201° Southwest 414 476 36,100  Climbing Aus ATC (RADAR)
05:15PM -20.9000 144.1950 201° Southwest 406 467 36,000 -120 Descending FlightAware
05:16PM -20.9600 144.1700 201° Southwest 406 467 36,000 60 Level FlightAware
05:16PM -21.1502 144.1511 201° Southwest 407 468 36,100  Climbing Aus ATC (RADAR)
05:16PM -21.0340 144.1400 201° Southwest 406 467 36,000  Descending FlightAware
05:17PM -21.1954 144.1395 201° Southwest 402 463 36,100  Climbing Aus ATC (RADAR)
05:17PM -21.0940 144.1150 201° Southwest 406 467 36,000 -120 Descending FlightAware
05:18PM -21.1540 144.0910 200° South 406 467 36,000 60 Level FlightAware
05:18PM -21.3432 144.1067 200° South 404 465 36,100  Climbing Aus ATC (RADAR)
05:18PM -21.2130 144.0660 200° South 406 467 36,000  Descending FlightAware
05:19PM -21.4728 144.0775 200° South 407 468 36,100 60 Climbing Aus ATC (RADAR)
05:20PM -21.5380 144.0634 191° South 410 472 36,100  Level Aus ATC (RADAR)
05:22PM -21.7591 144.0135 192° South 404 465 36,100  Level Aus ATC (RADAR)
05:22PM -21.7870 144.0074 192° South 406 467 36,100  Level Aus ATC (RADAR)
05:23PM -21.8516 143.9936 191° South 405 466 36,100 180 Level Aus ATC (RADAR)
05:23PM -21.9057 143.9802 193° South 403 464 36,300 120 Climbing Aus ATC (RADAR)
05:24PM -22.0351 143.9525 191° South 404 465 36,300  Level Aus ATC (RADAR)
05:25PM -22.1081 143.9355 192° South 404 465 36,300  Level Aus ATC (RADAR)
05:26PM -22.2541 143.9017 192° South 402 463 36,300  Level Aus ATC (RADAR)
05:27PM -22.3009 143.8920 191° South 406 467 36,300  Level Aus ATC (RADAR)
05:27PM -22.3660 143.8785 191° South 406 467 36,300  Level Aus ATC (RADAR)
05:28PM -22.4579 143.8571 192° South 408 470 36,300  Level Aus ATC (RADAR)
05:29PM -22.5222 143.8409 193° South 409 471 36,300  Level Aus ATC (RADAR)
05:29PM -22.5866 143.8263 192° South 406 467 36,300  Level Aus ATC (RADAR)
05:30PM -22.6301 143.8131 196° South 400 460 36,300  Level Aus ATC (RADAR)
05:31PM -22.7383 143.8038 184° South 435 501 36,300 -60 Level Aus ATC (RADAR)
05:35PM -23.2140 143.6918 197° South 36,000 -60 Descending Aus ATC (Calculated)
05:38PM -23.4657 143.6322 192° South  Level FlightAware Approximate
05:39PM -23.5736 143.6066 192° South  Level FlightAware Approximate
05:40PM -23.6814 143.5809 192° South  Level FlightAware Approximate
05:40PM -23.8024 143.5521 200° South 36,000  Level Aus ATC (Calculated)
05:42PM -23.9463 143.5178 192° South  Level FlightAware Approximate
05:43PM -24.0541 143.4920 192° South  Level FlightAware Approximate
05:44PM -24.1620 143.4661 192° South  Level FlightAware Approximate
05:45PM -24.2698 143.4402 192° South  Level FlightAware Approximate
05:45PM -24.2544 143.3397 197° South 36,000  Level Aus ATC (Calculated)
05:47PM -24.2665 143.5633 93° East  Level FlightAware Approximate
05:48PM -24.2600 143.4424 273° West  Level FlightAware Approximate
05:49PM -24.2663 143.5633 93° East  Level FlightAware Approximate
05:50PM -24.2600 143.4424 273° West  Level FlightAware Approximate
05:50PM -24.7977 143.0821 167° South 36,000  Level Aus ATC (Calculated)
05:51PM -24.9612 143.0041 64° Northeast 36,000  Level Aus ATC (Calculated)
05:51PM -24.9140 143.1110 205° Southwest 389 448 36,000  Level FlightAware
05:52PM -24.9981 143.0010 205° Southwest  Level Estimated
05:52PM -24.9880 143.0730 205° Southwest 389 448 36,000  Level FlightAware
05:53PM -25.0550 143.0390 205° Southwest 388 447 36,000  Level FlightAware
05:54PM -25.1320 142.9990 205° Southwest 388 447 36,000  Level FlightAware
05:54PM -25.1880 142.9710 204° Southwest 388 447 36,000  Level FlightAware
05:55PM -25.3443 142.8205 53° Northeast 36,000  Level Aus ATC (Calculated)
05:55PM -25.2720 142.9280 205° Southwest 389 448 36,000  Level FlightAware
05:56PM -25.3440 142.8910 205° Southwest 389 448 36,000  Level FlightAware
05:56PM -25.3960 142.8640 205° Southwest 389 448 36,000  Level FlightAware
05:57PM -25.4720 142.8250 205° Southwest 390 449 36,000  Level FlightAware
05:58PM -25.5270 142.7960 205° Southwest 390 449 36,000  Level FlightAware
05:58PM -25.5830 142.7680 204° Southwest 390 449 36,000  Level FlightAware
05:59PM -25.6530 142.7320 205° Southwest 390 449 36,000  Level FlightAware
06:00PM -25.8610 142.5708 38° Northeast 36,000  Level Aus ATC (Calculated)
06:00PM -25.7080 142.7030 205° Southwest 390 449 36,000  Level FlightAware
06:01PM -25.7640 142.6740 205° Southwest 390 449 36,000  Level FlightAware
06:01PM -25.8190 142.6450 205° Southwest 390 449 36,000  Level FlightAware
06:02PM -25.8750 142.6170 204° Southwest 390 449 36,000  Level FlightAware
06:03PM -26.0090 142.5470 205° Southwest 36,000  Level FlightAware
06:03PM -26.0960 142.5020 205° Southwest 388 447 36,000  Level FlightAware
06:04PM -26.1550 142.4710 205° Southwest 388 447 36,000  Level FlightAware
06:05PM -26.3934 142.3110 33° Northeast 36,000  Level Aus ATC (Calculated)
06:05PM -26.2150 142.4400 205° Southwest 388 447 36,000  Level FlightAware
06:05PM -26.2960 142.3970 205° Southwest 387 445 36,000  Level FlightAware
06:06PM -26.5204 142.2486 33° Northeast 36,000  Level Aus ATC (Calculated)
06:06PM -26.3720 142.3570 205° Southwest 389 448 36,000  Level FlightAware
06:07PM -26.4280 142.3280 205° Southwest 389 448 36,000  Level FlightAware
06:07PM -26.6315 142.1939 34° Northeast 36,000  Level Aus ATC (Calculated)
06:08PM -26.5070 142.2870 205° Southwest 390 449 36,000  Level FlightAware
06:08PM -26.5700 142.2540 205° Southwest 390 449 36,000  Level FlightAware
06:09PM -26.6440 142.2140 206° Southwest 390 449 36,000  Level FlightAware
06:10PM -26.8744 142.0740 30° Northeast 36,000  Level Aus ATC (Calculated)
06:10PM -26.7060 142.1820 205° Southwest 390 449 36,000  Level FlightAware
06:10PM -26.7850 142.1400 205° Southwest 390 449 36,000  Level FlightAware
06:11PM -26.8500 142.1060 205° Southwest 389 448 36,000  Level FlightAware
06:12PM -26.9070 142.0760 205° Southwest 389 448 36,000  Level FlightAware
06:12PM -26.9780 142.0380 205° Southwest 390 449 36,000  Level FlightAware
06:13PM -27.0580 141.9960 205° Southwest 389 448 36,000  Level FlightAware
06:14PM -27.1410 141.9510 206° Southwest 388 447 36,000  Level FlightAware
06:15PM -27.4083 141.8083 26° Northeast 12,300  Descending Aus ATC (Calculated)
06:15PM -27.2060 141.9170 206° Southwest 388 447 36,000 25,380 Climbing FlightAware
06:15PM -27.2610 141.8880 205° Southwest 388 447 36,000  Level FlightAware
06:16PM -27.3160 141.8590 205° Southwest 388 447 36,000  Level FlightAware
06:17PM -27.6749 141.6953 21° North 12,300  Descending Aus ATC (Calculated)
06:17PM -27.3850 141.8230 205° Southwest 388 447 36,000 27,840 Climbing FlightAware
06:18PM -27.4950 141.7720 205° Southwest 392 451 36,000  Level FlightAware
06:18PM -27.5510 141.7490 200° South 392 451 36,000  Level FlightAware
06:19PM -27.6190 141.7190 201° Southwest 392 451 36,000  Level FlightAware
06:20PM -27.7090 141.6810 200° South 391 450 36,000  Level FlightAware
06:20PM -27.7760 141.6530 200° South 390 449 36,000  Level FlightAware
06:21PM -28.0480 141.5363 21° North 12,300  Descending Aus ATC (Calculated)
06:21PM -27.8510 141.6210 200° South 389 448 36,000 19,980 Climbing FlightAware
06:22PM -27.9060 141.5970 201° Southwest 389 448 36,000  Level FlightAware
06:22PM -28.2610 141.4449 21° North 12,300  Descending Aus ATC (Calculated)
06:22PM -27.9860 141.5630 201° Southwest 389 448 36,000 30,240 Climbing FlightAware
06:23PM -28.0590 141.5320 201° Southwest 388 447 36,000  Level FlightAware
06:23PM -28.3676 141.3991 21° North 12,300  Descending Aus ATC (Calculated)
06:24PM -28.1310 141.5010 201° Southwest 388 447 36,000 18,420 Climbing FlightAware
06:25PM -28.1970 141.4730 200° South 387 445 36,000  Level FlightAware
06:25PM -28.2740 141.4400 201° Southwest 387 445 36,000  Level FlightAware
06:26PM -28.3420 141.4110 201° Southwest 388 447 36,000  Level FlightAware
06:27PM -28.4060 141.3830 201° Southwest 388 447 36,000  Level FlightAware
06:27PM -28.7935 141.2149 21° North 12,300  Descending Aus ATC (Calculated)
06:27PM -28.7935 141.2149 21° North 12,300 711,000 Level Aus ATC (Calculated)
06:27PM -28.4820 141.3500 201° Southwest 388 447 36,000 30,240 Climbing FlightAware
06:28PM -28.5570 141.3180 201° Southwest 389 448 36,000  Level FlightAware
06:29PM -28.6290 141.2870 201° Southwest 389 448 36,000  Level FlightAware
06:30PM -28.7020 141.2550 201° Southwest 390 449 36,000  Level FlightAware
06:30PM -28.7690 141.2260 201° Southwest 392 451 36,000  Level FlightAware
06:31PM -28.8460 141.1920 201° Southwest 392 451 36,000  Level FlightAware
06:32PM -28.9150 141.1620 201° Southwest 393 452 36,000  Level FlightAware
06:32PM -28.9830 141.1330 200° South 393 452 36,000  Level FlightAware
06:32PM -29.3254 140.9825 21° North 12,300  Descending Aus ATC (Calculated)
06:33PM -29.0580 141.1000 201° Southwest 392 451 36,000 14,640 Climbing FlightAware
06:34PM -29.1340 141.0670 201° Southwest 391 450 36,000  Level FlightAware
06:35PM -29.2100 141.0330 201° Southwest 391 450 36,000  Level FlightAware
06:35PM -29.2900 140.9990 200° South 389 448 36,000  Level FlightAware
06:36PM -29.3590 140.9680 201° Southwest 390 449 36,000  Level FlightAware
06:37PM -29.4420 140.9320 201° Southwest 390 449 36,000  Level FlightAware
06:37PM -29.8569 140.7477 21° North 12,300  Descending Aus ATC (Calculated)
06:38PM -29.5140 140.9020 201° Southwest 390 449 36,000 24,480 Climbing FlightAware
06:38PM -29.9100 140.7241 21° North 12,300  Descending Aus ATC (Calculated)
06:38PM -29.5860 140.8680 201° Southwest 393 452 36,000 18,420 Climbing FlightAware
06:39PM -30.0163 140.6768 21° North 12,300  Descending Aus ATC (Calculated)
06:39PM -29.6880 140.8230 201° Southwest 392 451 36,000 33,060 Climbing FlightAware
06:40PM -29.7460 140.7970 201° Southwest 392 451 36,000  Level FlightAware
06:41PM -29.8040 140.7720 201° Southwest 392 451 36,000  Level FlightAware
06:41PM -29.9120 140.7240 201° Southwest 394 453 36,000  Level FlightAware
06:42PM -30.3879 140.5105 21° North 12,300  Descending Aus ATC (Calculated)
06:42PM -30.0000 140.6850 201° Southwest 394 453 36,000 33,060 Climbing FlightAware
06:43PM -30.0730 140.6520 201° Southwest 396 456 36,000  Level FlightAware
06:43PM -30.4941 140.4627 21° North 12,300  Descending Aus ATC (Calculated)
06:44PM -30.1460 140.6200 201° Southwest 397 457 36,000 19,980 Climbing FlightAware
06:44PM -30.2040 140.5940 201° Southwest 397 457 36,000  Level FlightAware
06:45PM -30.6002 140.4148 21° North 12,300  Descending Aus ATC (Calculated)
06:45PM -30.2620 140.5680 201° Southwest 397 457 36,000 19,740 Climbing FlightAware
06:46PM -30.3210 140.5420 201° Southwest 397 457 36,000  Level FlightAware
06:46PM -30.7593 140.3428 21° North 12,300  Descending Aus ATC (Calculated)
06:46PM -30.3790 140.5160 201° Southwest 397 457 36,000 19,740 Climbing FlightAware
06:47PM -30.8124 140.3188 21° North 12,300  Descending Aus ATC (Calculated)
06:47PM -30.4370 140.4900 201° Southwest 397 457 36,000 19,200 Climbing FlightAware
06:48PM -30.5100 140.4580 201° Southwest 397 457 36,000  Level FlightAware
06:49PM -30.5690 140.4320 201° Southwest 397 457 36,000  Level FlightAware
06:49PM -30.7090 140.3660 202° Southwest 400 460 36,000  Level FlightAware
06:50PM -30.7820 140.3340 201° Southwest 400 460 36,000  Level FlightAware
06:51PM -30.8410 140.3070 201° Southwest 400 460 36,000  Level FlightAware
06:51PM -30.9000 140.2810 201° Southwest 400 460 36,000  Level FlightAware
06:52PM -31.3425 140.0768 22° Northeast 12,300  Descending Aus ATC (Calculated)
06:52PM -30.9590 140.2550 201° Southwest 400 460 36,000 20,580 Climbing FlightAware
06:53PM -31.0320 140.2220 201° Southwest 400 460 36,000  Level FlightAware
06:54PM -31.0910 140.1960 201° Southwest 400 460 36,000 240 Level FlightAware
06:54PM -31.2158 140.1342 201° Southwest 397 457 36,300  Climbing Aus ATC (RADAR)
06:54PM -31.1490 140.1690 201° Southwest 400 460 36,000  Descending FlightAware
06:55PM -31.2758 140.1064 201° Southwest 397 457 36,300  Climbing Aus ATC (RADAR)
06:55PM -31.2080 140.1430 201° Southwest 400 460 36,000  Descending FlightAware
06:55PM -31.3356 140.0780 201° Southwest 397 457 36,300  Climbing Aus ATC (RADAR)
06:56PM -31.2670 140.1170 201° Southwest 400 460 36,000  Descending FlightAware
06:56PM -31.4045 140.0474 201° Southwest 397 457 36,300  Climbing Aus ATC (RADAR)
06:56PM -31.3400 140.0840 201° Southwest 400 460 36,000  Descending FlightAware
06:57PM -31.4811 140.0084 201° Southwest 400 460 36,300  Climbing Aus ATC (RADAR)
06:57PM -31.3990 140.0570 201° Southwest 400 460 36,000 -300 Descending FlightAware
06:58PM -31.4580 140.0310 201° Southwest 400 460 36,000  Level FlightAware
06:58PM -31.5170 140.0040 201° Southwest 400 460 36,000 180 Level FlightAware
06:59PM -31.7493 139.8863 201° Southwest 403 464 36,300 180 Climbing Aus ATC (RADAR)
07:00PM -31.8280 139.8538 199° South 401 461 36,300  Level Aus ATC (RADAR)
07:00PM -31.8712 139.8342 201° Southwest 401 461 36,300  Level Aus ATC (RADAR)
07:01PM -31.9311 139.8034 204° Southwest 404 465 36,300  Level Aus ATC (RADAR)
07:02PM -32.0093 139.7697 200° South 402 463 36,300 -180 Level Aus ATC (RADAR)
07:03PM -32.1270 139.7140 200° South 401 461 36,000  Descending FlightAware
07:03PM -32.1728 139.6906 200° South 402 463 36,300  Climbing Aus ATC (RADAR)
07:04PM -32.1950 139.6820 200° South 402 463 36,000  Descending FlightAware
07:04PM -32.2250 139.6681 200° South 401 461 36,300  Climbing Aus ATC (RADAR)
07:04PM -32.2740 139.6450 200° South 402 463 36,000 -300 Descending FlightAware
07:05PM -32.3440 139.6120 202° Southwest 403 464 36,000 300 Level FlightAware
07:05PM -32.3716 139.5970 202° Southwest 403 464 36,300  Climbing Aus ATC (RADAR)
07:06PM -32.4220 139.5750 202° Southwest 396 456 36,000 -300 Descending FlightAware
07:06PM -32.4900 139.5430 202° Southwest 397 457 36,000 240 Level FlightAware
07:07PM -32.5545 139.5128 202° Southwest 405 466 36,300  Climbing Aus ATC (RADAR)
07:07PM -32.5610 139.5100 202° Southwest 399 459 36,000 -360 Descending FlightAware
07:08PM -32.6390 139.4730 202° Southwest 398 458 36,000 240 Level FlightAware
07:08PM -32.6934 139.4465 202° Southwest 407 468 36,300  Climbing Aus ATC (RADAR)
07:08PM -32.7080 139.4400 202° Southwest 397 457 36,000 -360 Descending FlightAware
07:09PM -32.7780 139.4070 202° Southwest 396 456 36,000  Level FlightAware
07:10PM -32.8570 139.3700 201° Southwest 403 464 36,000  Level FlightAware
07:11PM -32.9260 139.3370 202° Southwest 403 464 36,000  Level FlightAware
07:11PM -33.0040 139.2990 202° Southwest 403 464 36,000  Level FlightAware
07:12PM -33.0720 139.2660 202° Southwest 397 457 36,000  Level FlightAware
07:13PM -33.1520 139.2290 201° Southwest 398 458 36,000 240 Level FlightAware
07:13PM -33.2053 139.2020 201° Southwest 408 470 36,300  Climbing Aus ATC (RADAR)
07:13PM -33.2210 139.1960 201° Southwest 399 459 36,000  Descending FlightAware
07:14PM -33.2575 139.1777 201° Southwest 405 466 36,300  Climbing Aus ATC (RADAR)
07:14PM -33.2900 139.1630 201° Southwest 398 458 36,000 -300 Descending FlightAware
07:15PM -33.3700 139.1240 202° Southwest 398 458 36,000 -960 Level FlightAware
07:15PM -33.4400 139.0897 202° Southwest 406 467 34,700 -2,400 Descending Aus ATC (RADAR)
07:15PM -33.4390 139.0900 202° Southwest 401 461 34,400 -3,360 Descending FlightAware
07:16PM -33.5021 139.0590 202° Southwest 415 478 32,800 -3,240 Descending Aus ATC (RADAR)
07:16PM -33.5200 139.0510 202° Southwest 420 483 32,000 -3,000 Descending FlightAware
07:17PM -33.5838 139.0204 202° Southwest 423 487 30,500 -2,880 Descending Aus ATC (RADAR)
07:17PM -33.5930 139.0160 202° Southwest 419 482 30,100 -2,040 Descending FlightAware
07:17PM -33.6286 138.9980 202° Southwest 420 483 29,700 -2,280 Descending Aus ATC (RADAR)
07:18PM -33.6640 138.9820 202° Southwest 413 475 28,600 -2,340 Descending FlightAware
07:18PM -33.7410 138.9440 202° Southwest 398 458 27,100 -2,040 Descending FlightAware
07:19PM -33.7760 138.9269 202° Southwest 400 460 26,500 -2,400 Descending Aus ATC (RADAR)
07:19PM -33.8100 138.9110 202° Southwest 384 442 25,500 -2,220 Descending FlightAware
07:20PM -33.8762 138.8784 202° Southwest 388 447 24,300 -2,160 Descending Aus ATC (RADAR)
07:20PM -33.8830 138.8750 202° Southwest 380 437 23,900 -1,980 Descending FlightAware
07:20PM -33.9324 138.8507 202° Southwest 376 433 23,200 -1,980 Descending Aus ATC (RADAR)
07:20PM -33.9470 138.8430 202° Southwest 362 417 22,600 -2,280 Descending FlightAware
07:21PM -33.9952 138.8192 202° Southwest 368 423 21,700 -2,400 Descending Aus ATC (RADAR)
07:21PM -34.0100 138.8130 202° Southwest 363 418 21,000 -2,280 Descending FlightAware
07:22PM -34.0727 138.7819 202° Southwest 360 414 19,800 -2,280 Descending Aus ATC (RADAR)
07:22PM -34.0810 138.7780 202° Southwest 352 405 19,300 -2,220 Descending FlightAware
07:22PM -34.1420 138.7480 202° Southwest 345 397 18,100 -2,160 Descending FlightAware
07:23PM -34.2080 138.7180 201° Southwest 347 399 16,300 -2,340 Descending FlightAware
07:24PM -34.2720 138.7020 192° South 343 395 14,800 -2,280 Descending FlightAware
07:25PM -34.3330 138.6840 194° South 341 392 13,300 -2,280 Descending FlightAware
07:25PM -34.3753 138.6618 194° South 340 391 12,300 -2,160 Descending Aus ATC (RADAR)
07:25PM -34.3980 138.6500 194° South 336 387 11,700 -1,620 Descending FlightAware
07:26PM -34.4393 138.6285 194° South 333 383 11,100 -1,680 Descending Aus ATC (RADAR)
07:26PM -34.4540 138.6210 194° South 317 365 10,600 -1,080 Descending FlightAware
07:26PM -34.4933 138.6002 194° South 317 365 10,400 -900 Descending Aus ATC (RADAR)
07:27PM -34.5070 138.5930 194° South 297 342 10,000 -1,020 Descending FlightAware
07:27PM -34.5306 138.5804 194° South 298 343 9,900 -1,440 Descending Aus ATC (RADAR)
07:27PM -34.5430 138.5740 194° South 284 327 9,300 -2,100 Descending FlightAware
07:28PM -34.5810 138.5540 203° Southwest 284 327 8,400 -1,800 Descending FlightAware
07:28PM -34.6110 138.5380 204° Southwest 282 325 7,700 -1,560 Descending FlightAware
07:29PM -34.6460 138.5200 203° Southwest 279 321 7,000 -1,560 Descending FlightAware
07:29PM -34.6780 138.5030 204° Southwest 285 328 6,300 -1,560 Descending FlightAware
07:29PM -34.7150 138.4830 204° Southwest 281 323 5,600 -1,560 Descending FlightAware
07:30PM -34.7450 138.4670 204° Southwest 280 322 4,900 -1,440 Descending FlightAware
07:30PM -34.7679 138.4552 204° Southwest 283 326 4,600 -1,200 Descending Aus ATC (RADAR)
07:30PM -34.7810 138.4480 204° Southwest 266 306 4,300 -1,080 Descending FlightAware
07:31PM -34.7980 138.4390 203° Southwest 266 306 4,100 -420 Descending FlightAware
07:31PM -34.8191 138.4284 203° Southwest 266 306 4,100 -720 Level Aus ATC (RADAR)
07:31PM -34.8250 138.4250 203° Southwest 244 281 3,800 -480 Descending FlightAware
07:32PM -34.8560 138.4090 203° Southwest 230 265 3,800 -420 Level FlightAware
07:32PM -34.8870 138.3920 204° Southwest 231 266 3,400 -660 Descending FlightAware
07:32PM -34.9057 138.3823 204° Southwest 240 276 3,300 -1,200 Descending Aus ATC (RADAR)
07:32PM -34.9120 138.3790 204° Southwest 231 266 2,900 -840 Descending FlightAware
07:33PM -34.9357 138.3669 204° Southwest 235 270 2,900 -600 Level Aus ATC (RADAR)
07:33PM -34.9420 138.3670 204° Southwest 227 261 2,600 -780 Descending FlightAware
07:33PM -34.9650 138.3860 146° Southeast 203 234 2,400 -600 Descending FlightAware
07:34PM -34.9820 138.4060 136° Southeast 201 231 2,100 -900 Descending FlightAware
07:34PM -35.0020 138.4300 135° Southeast 191 220 1,600 -1,080 Descending FlightAware
07:35PM -35.0060 138.4390 118° Southeast 177 204 1,400 -360 Descending FlightAware
07:35PM -34.9996 138.4598 118° Southeast 146 168 1,400 -420 Level Aus ATC (RADAR)
07:35PM -34.9990 138.4600 118° Southeast 130 150 1,200 -1,080 Descending FlightAware
07:36PM -34.9880 138.4760 50° Northeast 125 144 800 -660 Descending FlightAware
07:36PM -34.9803 138.4857 50° Northeast 124 143 700 -960 Descending Aus ATC (RADAR)
07:36PM -34.9780 138.4890 50° Northeast 116 133 400 -540 Descending FlightAware
07:36PM -34.9676 138.5042 50° Northeast 123 142 400 -600 Level Aus ATC (RADAR)
07:36PM -34.9670 138.5040 50° Northeast 124 143 100 -4,500 Descending FlightAware
07:37PM -34.9570 138.5190 51° Northeast 125 144 -240 Descending FlightAware
07:37PM -34.9490 138.5310 51° Northeast 78 90  Level FlightAware
07:38PM -34.9460 138.5350 48° Northeast 10 12  Level FlightAware
07:39PM -34.9440 138.5350 360° North 11 13  Level FlightAware
07:39PM -34.9430 138.5360 39° Northeast 15 17  Level FlightAware
07:40PM -34.9410 138.5390 51° Northeast 11 13  Level FlightAware
07:40PM -34.9410 138.5380 270° West 11 13  Level FlightAware
07:41PM -34.9410 138.5370 270° West 3 3  Level FlightAware
07:41PM -34.9400 138.5360 321° Northwest 1 1  Level FlightAware